Washington, District of Columbia
Traffic Map
Current Weather Conditions
Washington, District of Columbia
Overcast Thunderstorm
Overcast
21°
Feels Like: 21°
Wind Chill: 21° Ceiling: 1400
Heat Index: 21° Visibility: 7mi
Dew Point: 20° Wind: 13mph
Humidity: 93% Direction: 90° (E)
Pressure: 30.03in Gusts: 0mph
Raw Report DataKDCA 290517Z 09011KT 7SM +TSRA BKN014 OVC050 21/20 A3003 RMK AO2 LTG DSNT ALQDS RAB08 TSB11 P0001 T02110200
Traffic Incident Summary
Active as of:
Severity:
Category:
InformationThere was an issue retrieving the traffic information for this location. Please try a different location or try again shortly.
Advertisements
Track Severe Weather on mobile